Time;durP1;ratioP1;P1;durP2;ratioP2;P2;SDS_P1;SDS_P2;PMS_P1;PMS_P2;Temp;Humidity;BMP_temperature;BMP_pressure;BME280_temperature;BME280_humidity;BME280_pressure;Samples;Min_cycle;Max_cycle;Signal;HPM_P1;HPM_P2
2023/07/11 00:02:25;;;;;;;12.38;10.23;;;26.80;99.90;;;;;;5092698;28;20017;-75
2023/07/11 00:04:51;;;;;;;11.38;9.93;;;26.90;99.90;;;;;;5096476;28;20024;-75
2023/07/11 00:07:17;;;;;;;11.93;10.38;;;26.80;99.90;;;;;;5103857;28;20015;-75
2023/07/11 00:09:47;;;;;;;13.73;11.13;;;26.90;99.90;;;;;;5099866;28;20471;-75
2023/07/11 00:12:13;;;;;;;13.38;11.15;;;26.80;99.90;;;;;;5102927;28;20023;-75
2023/07/11 00:14:39;;;;;;;13.05;10.80;;;26.70;99.90;;;;;;5102052;28;20059;-75
2023/07/11 00:17:05;;;;;;;14.27;10.57;;;26.70;99.90;;;;;;5102180;28;20051;-75
2023/07/11 00:19:45;;;;;;;13.82;11.05;;;26.80;99.90;;;;;;5085420;28;20567;-76
2023/07/11 00:22:11;;;;;;;17.00;10.48;;;26.80;99.90;;;;;;5097392;28;20024;-75
2023/07/11 00:24:37;;;;;;;14.02;9.73;;;26.80;99.90;;;;;;5102946;28;20394;-75
2023/07/11 00:27:03;;;;;;;13.75;11.35;;;26.80;99.90;;;;;;5101278;28;20024;-75
2023/07/11 00:29:28;;;;;;;13.65;11.02;;;26.80;99.90;;;;;;5084207;28;20028;-75
2023/07/11 00:31:54;;;;;;;11.85;10.15;;;26.80;99.90;;;;;;5081115;28;20472;-75
2023/07/11 00:34:20;;;;;;;16.83;10.43;;;26.70;99.90;;;;;;5101995;28;20556;-75
2023/07/11 00:36:45;;;;;;;14.48;10.35;;;26.70;99.90;;;;;;5083682;28;20020;-75
2023/07/11 00:39:12;;;;;;;13.77;10.38;;;26.80;99.90;;;;;;5083070;28;20108;-75
2023/07/11 00:41:38;;;;;;;15.73;10.02;;;26.90;99.90;;;;;;5102656;28;20023;-75
2023/07/11 00:44:11;;;;;;;13.80;10.50;;;26.90;99.90;;;;;;5100658;28;20039;-75
2023/07/11 00:46:37;;;;;;;9.85;8.88;;;26.90;99.90;;;;;;5075472;28;20031;-75
2023/07/11 00:49:03;;;;;;;11.90;9.75;;;26.90;99.90;;;;;;5081511;28;20031;-75
2023/07/11 00:51:42;;;;;;;12.05;9.85;;;26.90;99.90;;;;;;5102772;28;20119;-75
2023/07/11 00:54:13;;;;;;;12.88;9.20;;;26.90;99.90;;;;;;5102576;28;20028;-76
2023/07/11 00:56:43;;;;;;;13.20;9.90;;;26.90;99.90;;;;;;5099359;28;20040;-75
2023/07/11 00:59:09;;;;;;;11.65;9.48;;;26.90;99.90;;;;;;5102882;28;20535;-75
2023/07/11 01:01:36;;;;;;;12.00;9.25;;;26.80;99.90;;;;;;5100582;28;20537;-75
2023/07/11 01:04:04;;;;;;;12.43;9.48;;;26.90;99.90;;;;;;5101963;28;20500;-75
2023/07/11 01:06:31;;;;;;;11.95;10.00;;;26.90;99.90;;;;;;5101653;28;20013;-75
2023/07/11 01:08:59;;;;;;;10.50;9.50;;;26.80;99.90;;;;;;5082519;28;20076;-75
2023/07/11 01:11:27;;;;;;;13.60;9.70;;;26.80;99.90;;;;;;5084398;28;20069;-75
2023/07/11 01:13:52;;;;;;;12.65;9.30;;;26.70;99.90;;;;;;5099801;28;20048;-75
2023/07/11 01:16:19;;;;;;;12.15;9.52;;;26.70;99.90;;;;;;5080950;28;20443;-75
2023/07/11 01:18:45;;;;;;;13.82;9.75;;;26.70;99.90;;;;;;5098723;28;20031;-75
2023/07/11 01:21:19;;;;;;;11.95;9.60;;;26.70;99.90;;;;;;5102738;28;20024;-75
2023/07/11 01:23:45;;;;;;;14.05;9.35;;;26.70;99.90;;;;;;5105389;28;20031;-75
2023/07/11 01:26:14;;;;;;;12.55;9.65;;;26.70;99.90;;;;;;5105855;28;20028;-75
2023/07/11 01:28:40;;;;;;;12.32;9.50;;;26.70;99.90;;;;;;5085911;28;20028;-76
2023/07/11 01:31:06;;;;;;;14.57;9.32;;;26.70;99.90;;;;;;5106639;28;20015;-75
2023/07/11 01:33:33;;;;;;;12.93;9.23;;;26.70;99.90;;;;;;5103489;28;20016;-75
2023/07/11 01:36:00;;;;;;;12.23;9.50;;;26.70;99.90;;;;;;5089052;28;20031;-75
2023/07/11 01:38:26;;;;;;;13.23;8.85;;;26.60;99.90;;;;;;5106565;28;20024;-75
2023/07/11 01:40:52;;;;;;;11.63;8.95;;;26.60;99.90;;;;;;5103261;28;20081;-76
2023/07/11 01:43:19;;;;;;;16.75;9.27;;;26.60;99.90;;;;;;5104033;28;20024;-75
2023/07/11 01:45:45;;;;;;;15.60;9.05;;;26.60;99.90;;;;;;5105772;28;20031;-76
2023/07/11 01:48:11;;;;;;;14.25;9.35;;;26.60;99.90;;;;;;5082393;28;20081;-75
2023/07/11 01:50:37;;;;;;;10.30;8.85;;;26.60;99.90;;;;;;5105157;28;20355;-75
2023/07/11 01:53:03;;;;;;;15.55;9.65;;;26.50;99.90;;;;;;5105169;28;20467;-75
2023/07/11 01:55:29;;;;;;;10.30;8.95;;;26.60;99.90;;;;;;5104267;28;20179;-75
2023/07/11 01:57:54;;;;;;;14.52;9.80;;;26.50;99.90;;;;;;5105472;28;20056;-76
2023/07/11 02:00:20;;;;;;;13.80;9.75;;;26.50;99.90;;;;;;5103961;28;20029;-75
2023/07/11 02:02:46;;;;;;;13.32;8.95;;;26.50;99.90;;;;;;5104140;28;20058;-75
2023/07/11 02:05:14;;;;;;;10.63;8.73;;;26.50;99.90;;;;;;5098459;28;20024;-75
2023/07/11 02:07:40;;;;;;;12.05;8.38;;;26.50;99.90;;;;;;5098552;28;20112;-75
2023/07/11 02:10:06;;;;;;;14.98;8.80;;;26.40;99.90;;;;;;5102955;28;20055;-75
2023/07/11 02:12:32;;;;;;;10.68;8.95;;;26.50;99.90;;;;;;5105943;28;20024;-75
2023/07/11 02:14:57;;;;;;;13.60;9.02;;;26.40;99.90;;;;;;5102495;28;20020;-75
2023/07/11 02:17:23;;;;;;;10.25;8.70;;;26.30;99.90;;;;;;5105717;28;20152;-75
2023/07/11 02:19:52;;;;;;;9.38;8.13;;;26.30;99.90;;;;;;5103962;28;20066;-76
2023/07/11 02:22:18;;;;;;;14.10;10.00;;;26.30;99.90;;;;;;5104142;28;20016;-74
2023/07/11 02:24:43;;;;;;;9.77;8.88;;;26.30;99.90;;;;;;5102126;28;20016;-75
2023/07/11 02:27:09;;;;;;;9.20;8.25;;;26.30;99.90;;;;;;5102074;28;20519;-75
2023/07/11 02:29:35;;;;;;;10.88;8.55;;;26.30;99.90;;;;;;5106255;28;20086;-75
2023/07/11 02:32:00;;;;;;;11.18;8.52;;;26.20;99.90;;;;;;5086294;28;20047;-75
2023/07/11 02:34:26;;;;;;;12.27;8.68;;;26.20;99.90;;;;;;5102610;28;20414;-75
2023/07/11 02:36:52;;;;;;;12.88;8.73;;;26.10;99.90;;;;;;5106059;28;20574;-75
2023/07/11 02:39:18;;;;;;;9.68;8.70;;;26.20;99.90;;;;;;5105328;28;20072;-75
2023/07/11 02:41:44;;;;;;;10.80;9.02;;;26.10;99.90;;;;;;5098146;28;20039;-76
2023/07/11 02:44:10;;;;;;;11.18;8.85;;;26.10;99.90;;;;;;5101960;28;20107;-75
2023/07/11 02:46:36;;;;;;;10.43;9.25;;;26.10;99.90;;;;;;5105281;28;20433;-75
2023/07/11 02:49:03;;;;;;;11.70;8.50;;;26.00;99.90;;;;;;5100438;28;20467;-75
2023/07/11 02:51:29;;;;;;;12.25;8.63;;;26.00;99.90;;;;;;5104282;28;20016;-75
2023/07/11 02:53:55;;;;;;;9.65;8.65;;;26.00;99.90;;;;;;5103392;28;20026;-75
2023/07/11 02:56:21;;;;;;;11.32;8.32;;;26.00;99.90;;;;;;5103377;28;20019;-75
2023/07/11 02:58:49;;;;;;;11.85;8.55;;;25.90;99.90;;;;;;5085850;28;20073;-75
2023/07/11 03:01:15;;;;;;;10.48;8.23;;;25.80;99.90;;;;;;5102803;28;20051;-75
2023/07/11 03:03:41;;;;;;;10.55;8.77;;;25.80;99.90;;;;;;5104798;28;20481;-75
2023/07/11 03:06:06;;;;;;;12.45;8.80;;;25.80;99.90;;;;;;5087432;28;20110;-75
2023/07/11 03:08:32;;;;;;;10.07;8.13;;;25.80;99.90;;;;;;5083287;28;20395;-75
2023/07/11 03:11:01;;;;;;;9.90;8.27;;;25.80;99.90;;;;;;5087124;28;20024;-75
2023/07/11 03:13:27;;;;;;;10.07;8.70;;;25.90;99.90;;;;;;5102027;28;20103;-75
2023/07/11 03:15:53;;;;;;;9.07;8.18;;;25.90;99.90;;;;;;5104295;28;20023;-75
2023/07/11 03:18:19;;;;;;;10.50;8.80;;;25.90;99.90;;;;;;5105050;28;20528;-75
2023/07/11 03:20:45;;;;;;;10.60;8.18;;;25.90;99.90;;;;;;5102784;28;20024;-75
2023/07/11 03:23:13;;;;;;;9.98;8.35;;;25.90;99.90;;;;;;5103185;28;20035;-75
2023/07/11 03:25:39;;;;;;;8.93;8.02;;;25.90;99.90;;;;;;5103485;28;20193;-75
2023/07/11 03:28:05;;;;;;;15.25;8.55;;;25.90;99.90;;;;;;5102337;28;20105;-75
2023/07/11 03:30:33;;;;;;;14.63;8.75;;;26.00;99.90;;;;;;5085910;28;20027;-76
2023/07/11 03:32:59;;;;;;;10.02;7.82;;;26.00;99.90;;;;;;5101454;28;20020;-75
2023/07/11 03:35:24;;;;;;;10.70;8.43;;;25.90;99.90;;;;;;5104671;28;20031;-75
2023/07/11 03:37:50;;;;;;;9.48;8.30;;;25.90;99.90;;;;;;5100959;28;20512;-75
2023/07/11 03:40:16;;;;;;;9.57;8.00;;;25.90;99.90;;;;;;5086494;28;20440;-75
2023/07/11 03:42:41;;;;;;;10.23;7.88;;;25.90;99.90;;;;;;5104489;28;20072;-75
2023/07/11 03:45:07;;;;;;;10.52;7.82;;;25.90;99.90;;;;;;5101295;28;20027;-75
2023/07/11 03:47:33;;;;;;;9.23;8.25;;;25.80;99.90;;;;;;5081510;28;20410;-75
2023/07/11 03:49:59;;;;;;;13.15;7.90;;;25.80;99.90;;;;;;5101842;28;20103;-75
2023/07/11 03:52:25;;;;;;;9.23;8.32;;;25.80;99.90;;;;;;5103213;28;20399;-75
2023/07/11 03:54:50;;;;;;;14.18;8.57;;;25.80;99.90;;;;;;5104283;28;20020;-75
2023/07/11 03:57:17;;;;;;;10.10;8.63;;;25.80;99.90;;;;;;5101215;28;20052;-75
2023/07/11 03:59:43;;;;;;;15.93;14.55;;;25.70;99.90;;;;;;5086512;28;20578;-75
2023/07/11 04:02:08;;;;;;;11.48;8.30;;;25.70;99.90;;;;;;5101802;28;20103;-75
2023/07/11 04:04:34;;;;;;;9.88;7.68;;;25.70;99.90;;;;;;5085158;28;20363;-75
2023/07/11 04:06:59;;;;;;;8.05;7.25;;;25.70;99.90;;;;;;5101165;28;20463;-75
2023/07/11 04:09:25;;;;;;;10.13;8.23;;;25.70;99.90;;;;;;5091709;28;20035;-75
2023/07/11 04:11:51;;;;;;;14.07;8.52;;;25.80;99.90;;;;;;5104016;28;20023;-75
2023/07/11 04:14:17;;;;;;;11.20;8.48;;;25.80;99.90;;;;;;5100209;28;20016;-75
2023/07/11 04:16:43;;;;;;;9.00;8.10;;;25.70;99.90;;;;;;5085988;28;20387;-75
2023/07/11 04:19:08;;;;;;;8.93;8.05;;;25.80;99.90;;;;;;5100405;28;20027;-75
2023/07/11 04:21:35;;;;;;;12.63;8.35;;;25.70;99.90;;;;;;5100308;28;20024;-75
2023/07/11 04:24:01;;;;;;;11.02;8.07;;;25.80;99.90;;;;;;5084403;28;20020;-75
2023/07/11 04:26:27;;;;;;;12.27;8.18;;;25.70;99.90;;;;;;5101437;28;20024;-75
2023/07/11 04:28:53;;;;;;;8.48;7.68;;;25.80;99.90;;;;;;5102381;28;20479;-75
2023/07/11 04:31:18;;;;;;;12.00;8.65;;;25.80;99.90;;;;;;5101587;28;20031;-75
2023/07/11 04:33:44;;;;;;;12.80;7.50;;;25.80;99.90;;;;;;5101770;28;20023;-75
2023/07/11 04:36:12;;;;;;;13.23;8.35;;;25.80;99.90;;;;;;5083950;28;20126;-75
2023/07/11 04:38:39;;;;;;;8.98;8.00;;;25.80;99.90;;;;;;5100918;28;20501;-75
2023/07/11 04:41:05;;;;;;;12.50;8.13;;;25.80;99.90;;;;;;5102994;28;20077;-74
2023/07/11 04:43:33;;;;;;;24.50;9.30;;;25.80;99.90;;;;;;5100099;28;20028;-75
2023/07/11 04:46:00;;;;;;;20.98;8.98;;;25.80;99.90;;;;;;5077756;28;20048;-74
2023/07/11 04:48:26;;;;;;;11.32;8.95;;;25.80;99.90;;;;;;5082744;28;20045;-75
2023/07/11 04:51:03;;;;;;;11.27;9.23;;;25.80;99.90;;;;;;5100380;28;20024;-74
2023/07/11 04:53:29;;;;;;;18.88;8.55;;;25.90;99.90;;;;;;5100775;28;20177;-75
2023/07/11 04:56:03;;;;;;;12.20;8.85;;;25.90;99.90;;;;;;5102264;28;20024;-75
2023/07/11 04:58:30;;;;;;;9.75;8.27;;;25.90;99.90;;;;;;5096300;28;20044;-75
2023/07/11 05:01:07;;;;;;;10.07;8.68;;;26.00;99.90;;;;;;5101281;28;20024;-74
2023/07/11 05:03:33;;;;;;;13.98;8.32;;;26.10;99.90;;;;;;5098836;28;20016;-75
2023/07/11 05:05:59;;;;;;;9.63;7.93;;;26.10;99.90;;;;;;5102451;28;20127;-75
2023/07/11 05:08:24;;;;;;;12.18;8.38;;;26.10;99.90;;;;;;5100166;28;20114;-75
2023/07/11 05:11:02;;;;;;;10.32;8.50;;;26.10;99.90;;;;;;5098958;28;20030;-75
2023/07/11 05:13:29;;;;;;;10.88;8.85;;;26.10;99.90;;;;;;5098768;28;20023;-75
2023/07/11 05:16:07;;;;;;;10.23;8.75;;;26.10;99.90;;;;;;5098403;28;20046;-75
2023/07/11 05:18:40;;;;;;;11.82;8.90;;;26.20;99.90;;;;;;5094375;28;20045;-75
2023/07/11 05:21:10;;;;;;;10.52;8.20;;;26.20;99.90;;;;;;5095889;28;20027;-75
2023/07/11 05:23:37;;;;;;;9.48;8.52;;;26.20;99.90;;;;;;5097786;28;20030;-75
2023/07/11 05:26:03;;;;;;;11.07;8.32;;;26.20;99.90;;;;;;5098757;28;20388;-75
2023/07/11 05:28:32;;;;;;;14.20;8.52;;;26.30;99.90;;;;;;5079260;28;20115;-75
2023/07/11 05:31:01;;;;;;;10.48;8.38;;;26.30;99.90;;;;;;5082043;28;20020;-75
2023/07/11 05:33:27;;;;;;;9.43;8.50;;;26.40;99.90;;;;;;5100870;28;20032;-75
2023/07/11 05:38:54;;;;;;;13.80;8.68;;;26.50;99.90;;;;;;5097745;28;20032;-75
2023/07/11 05:41:20;;;;;;;9.77;8.77;;;26.50;99.90;;;;;;5101469;28;20394;-75
2023/07/11 05:43:46;;;;;;;10.82;8.90;;;26.60;99.90;;;;;;5098684;28;20051;-75
2023/07/11 05:46:12;;;;;;;10.55;9.30;;;26.60;99.90;;;;;;5083141;28;20035;-75
2023/07/11 05:48:38;;;;;;;11.65;9.18;;;26.60;99.90;;;;;;5099001;28;20016;-75
2023/07/11 05:51:12;;;;;;;9.07;8.13;;;26.60;99.90;;;;;;5097850;28;20387;-75
2023/07/11 05:53:38;;;;;;;11.38;8.95;;;26.70;99.90;;;;;;5095442;28;20024;-75
2023/07/11 05:56:04;;;;;;;11.15;9.70;;;26.80;99.90;;;;;;5100607;28;20149;-75
2023/07/11 05:58:31;;;;;;;13.23;9.30;;;26.80;99.90;;;;;;5101033;28;20570;-75
2023/07/11 06:00:58;;;;;;;11.02;9.07;;;26.90;99.90;;;;;;5079995;28;20039;-75
2023/07/11 06:03:25;;;;;;;12.50;8.80;;;26.90;99.90;;;;;;5099402;28;20100;-75
2023/07/11 06:05:53;;;;;;;11.38;9.18;;;27.00;99.90;;;;;;5099033;28;20231;-75
2023/07/11 06:08:19;;;;;;;11.43;8.77;;;27.00;99.90;;;;;;5085614;28;20020;-75
2023/07/11 06:10:45;;;;;;;11.40;9.52;;;27.10;99.90;;;;;;5102306;28;20020;-74
2023/07/11 06:13:12;;;;;;;13.57;8.77;;;27.10;99.90;;;;;;5094520;28;20093;-75
2023/07/11 06:15:38;;;;;;;10.93;9.52;;;27.10;99.90;;;;;;5101341;28;20026;-75
2023/07/11 06:18:04;;;;;;;15.45;8.80;;;27.20;99.90;;;;;;5099016;28;20020;-75
2023/07/11 06:20:30;;;;;;;12.18;9.50;;;27.30;99.90;;;;;;5106232;28;20107;-75
2023/07/11 06:22:56;;;;;;;11.80;9.38;;;27.30;99.90;;;;;;5102873;28;20035;-75
2023/07/11 06:25:22;;;;;;;11.63;8.70;;;27.40;99.90;;;;;;5105524;28;20023;-75
2023/07/11 06:27:48;;;;;;;11.07;8.27;;;27.40;99.90;;;;;;5103793;28;20474;-75
2023/07/11 06:30:14;;;;;;;14.07;9.57;;;27.50;99.90;;;;;;5099894;28;20065;-75
2023/07/11 06:32:40;;;;;;;14.10;8.73;;;27.60;99.90;;;;;;5101877;28;20024;-75
2023/07/11 06:35:06;;;;;;;11.77;8.18;;;27.70;99.90;;;;;;5107226;28;20063;-75
2023/07/11 06:37:32;;;;;;;10.73;9.48;;;27.70;99.90;;;;;;5103442;28;20015;-75
2023/07/11 06:39:57;;;;;;;10.95;9.55;;;27.70;99.90;;;;;;5104605;28;20379;-75
2023/07/11 06:42:23;;;;;;;13.73;9.38;;;27.80;99.90;;;;;;5099979;28;20016;-75
2023/07/11 06:44:49;;;;;;;11.05;9.55;;;27.80;99.90;;;;;;5105797;28;20498;-75
2023/07/11 06:47:15;;;;;;;20.83;9.57;;;27.90;99.90;;;;;;5089772;28;20452;-75
2023/07/11 06:49:41;;;;;;;14.90;8.68;;;27.90;99.90;;;;;;5091351;28;20031;-75
2023/07/11 06:52:06;;;;;;;14.82;9.02;;;28.00;99.90;;;;;;5101604;28;20024;-75
2023/07/11 06:54:32;;;;;;;10.05;9.05;;;28.00;99.90;;;;;;5096880;28;20027;-75
2023/07/11 06:56:58;;;;;;;15.45;8.93;;;28.10;99.90;;;;;;5094762;28;20093;-75
2023/07/11 06:59:24;;;;;;;13.45;8.93;;;28.20;99.90;;;;;;5085274;28;20490;-75
2023/07/11 07:01:50;;;;;;;18.63;8.93;;;28.20;99.90;;;;;;5100586;28;20028;-75
2023/07/11 07:04:16;;;;;;;10.50;9.15;;;28.20;99.90;;;;;;5102688;28;20028;-75
2023/07/11 07:06:43;;;;;;;15.25;9.48;;;28.20;99.90;;;;;;5087744;28;20540;-75
2023/07/11 07:09:09;;;;;;;13.07;8.80;;;28.30;99.90;;;;;;5104428;28;20055;-75
2023/07/11 07:11:35;;;;;;;17.33;9.68;;;28.30;99.90;;;;;;5106808;28;20022;-75
2023/07/11 07:14:06;;;;;;;13.65;9.07;;;28.40;99.90;;;;;;5092461;28;20133;-75
2023/07/11 07:16:33;;;;;;;13.60;8.48;;;28.40;99.90;;;;;;5106967;28;20020;-75
2023/07/11 07:18:58;;;;;;;10.23;8.50;;;28.50;99.90;;;;;;5103242;28;20022;-75
2023/07/11 07:21:24;;;;;;;14.00;8.30;;;28.60;99.90;;;;;;5106488;28;20099;-75
2023/07/11 07:23:50;;;;;;;11.27;8.63;;;28.60;99.90;;;;;;5076248;28;20115;-75
2023/07/11 07:26:16;;;;;;;16.33;9.32;;;28.70;99.90;;;;;;5095023;28;20024;-75
2023/07/11 07:28:41;;;;;;;17.63;9.38;;;28.80;99.90;;;;;;5106399;28;20386;-75
2023/07/11 07:31:08;;;;;;;14.77;9.95;;;28.80;99.90;;;;;;5114491;28;20186;-75
2023/07/11 07:33:35;;;;;;;16.70;10.32;;;28.90;99.90;;;;;;5101968;28;20480;-75
2023/07/11 07:36:03;;;;;;;13.20;8.50;;;28.90;99.90;;;;;;5108010;28;20114;-75
2023/07/11 07:38:30;;;;;;;10.65;8.82;;;29.00;99.90;;;;;;5097907;28;20534;-75
2023/07/11 07:41:01;;;;;;;16.33;8.25;;;29.00;99.90;;;;;;5090547;28;20019;-75
2023/07/11 07:43:28;;;;;;;15.13;9.55;;;29.00;99.90;;;;;;5098091;28;20028;-75
2023/07/11 07:45:56;;;;;;;8.82;8.00;;;29.00;99.90;;;;;;5074681;28;20033;-75
2023/07/11 07:48:22;;;;;;;13.75;8.63;;;29.10;99.90;;;;;;5103286;28;20020;-75
2023/07/11 07:50:48;;;;;;;14.02;8.77;;;29.10;99.90;;;;;;5099657;28;20490;-75
2023/07/11 07:53:15;;;;;;;11.90;8.55;;;29.20;99.90;;;;;;5080399;28;20023;-75
2023/07/11 07:55:42;;;;;;;10.82;8.10;;;29.30;99.90;;;;;;5107081;28;20059;-75
2023/07/11 07:58:08;;;;;;;13.45;8.48;;;29.20;99.90;;;;;;5074962;28;20196;-75
2023/07/11 08:00:34;;;;;;;13.77;9.30;;;29.20;99.90;;;;;;5101835;28;20023;-75
2023/07/11 08:02:59;;;;;;;10.73;8.93;;;29.10;99.90;;;;;;5098972;28;20035;-75
2023/07/11 08:05:26;;;;;;;10.88;8.80;;;29.20;99.90;;;;;;5094171;28;20091;-75
2023/07/11 08:07:52;;;;;;;11.77;8.45;;;29.20;99.90;;;;;;5097204;28;20067;-75
2023/07/11 08:10:18;;;;;;;13.13;8.40;;;29.20;99.90;;;;;;5099457;28;20051;-75
2023/07/11 08:12:44;;;;;;;11.90;9.00;;;29.30;99.90;;;;;;5095140;28;20538;-75
2023/07/11 08:15:11;;;;;;;13.68;8.32;;;29.30;99.90;;;;;;5074375;28;20032;-75
2023/07/11 08:17:38;;;;;;;10.88;8.60;;;29.40;99.90;;;;;;5101640;28;20452;-75
2023/07/11 08:20:07;;;;;;;14.27;9.27;;;29.30;99.90;;;;;;5089241;28;20020;-75
2023/07/11 08:22:33;;;;;;;15.30;8.60;;;29.40;99.90;;;;;;5094244;28;20254;-75
2023/07/11 08:24:58;;;;;;;10.88;8.50;;;29.50;99.90;;;;;;5076303;28;20062;-75
2023/07/11 08:27:24;;;;;;;13.48;9.27;;;29.50;99.90;;;;;;5099539;28;20355;-75
2023/07/11 08:29:50;;;;;;;13.10;8.90;;;29.50;99.90;;;;;;5093698;28;20027;-75
2023/07/11 08:32:18;;;;;;;10.95;8.85;;;29.50;99.90;;;;;;5084797;28;20368;-75
2023/07/11 08:34:44;;;;;;;10.07;8.82;;;29.50;99.90;;;;;;5082192;28;20328;-75
2023/07/11 08:37:10;;;;;;;15.55;9.57;;;29.50;99.90;;;;;;5103998;28;20495;-75
2023/07/11 08:39:37;;;;;;;18.00;9.00;;;29.50;99.90;;;;;;5104268;28;20024;-75
2023/07/11 08:42:12;;;;;;;10.80;9.20;;;29.60;99.90;;;;;;5098557;28;20055;-76
2023/07/11 08:44:45;;;;;;;11.43;9.10;;;29.60;99.90;;;;;;5095319;28;20024;-74
2023/07/11 08:47:31;;;;;;;10.77;9.43;;;29.70;99.90;;;;;;5099188;28;20035;-75
2023/07/11 08:50:23;;;;;;;9.70;8.77;;;29.70;99.90;;;;;;5094446;28;20020;-74
2023/07/11 08:52:50;;;;;;;;;;;29.70;99.90;;;;;;5095162;28;20506;-76
2023/07/11 08:55:26;;;;;;;13.77;9.38;;;29.70;99.90;;;;;;5097012;28;19942;-76
2023/07/11 08:58:16;;;;;;;11.70;8.63;;;29.70;99.90;;;;;;5109110;27;20060;-75
2023/07/11 09:00:46;;;;;;;14.63;10.07;;;29.70;99.90;;;;;;5088757;28;20488;-75
2023/07/11 09:03:30;;;;;;;13.18;9.95;;;29.80;99.90;;;;;;5103607;28;20107;-74
2023/07/11 09:06:13;;;;;;;20.33;10.38;;;29.80;99.90;;;;;;5107025;28;20027;-75
2023/07/11 09:08:42;;;;;;;11.45;9.40;;;29.80;99.90;;;;;;5093209;28;20099;-74
2023/07/11 09:11:54;;;;;;;17.45;9.63;;;29.90;99.90;;;;;;5096802;28;20028;-74
2023/07/11 09:14:38;;;;;;;13.68;10.18;;;30.00;99.90;;;;;;5086153;28;20052;-75
2023/07/11 09:17:43;;;;;;;13.75;10.48;;;30.00;99.90;;;;;;5069378;28;20036;-74
2023/07/11 09:20:39;;;;;;;14.32;11.05;;;30.00;99.90;;;;;;5071903;28;20025;-75
2023/07/11 09:23:18;;;;;;;14.95;10.50;;;30.00;99.90;;;;;;5094853;28;20038;-74
2023/07/11 09:25:49;;;;;;;19.58;12.77;;;30.10;99.90;;;;;;5086198;28;20027;-75
2023/07/11 09:28:25;;;;;;;18.65;11.82;;;30.20;99.90;;;;;;5103461;28;20028;-74
2023/07/11 09:31:00;;;;;;;16.27;10.98;;;30.30;99.90;;;;;;5083648;28;20508;-74
2023/07/11 09:33:38;;;;;;;16.08;11.95;;;30.20;99.90;;;;;;5089016;28;20152;-74
2023/07/11 09:36:20;;;;;;;15.57;11.73;;;30.20;99.90;;;;;;5100310;28;20082;-74
2023/07/11 09:38:53;;;;;;;17.58;11.93;;;30.30;99.90;;;;;;5087705;28;20016;-74
2023/07/11 09:41:45;;;;;;;15.30;11.35;;;30.40;99.90;;;;;;5106345;28;20138;-75
2023/07/11 09:44:11;;;;;;;13.88;11.55;;;30.40;99.90;;;;;;5092076;28;20031;-75
2023/07/11 09:46:37;;;;;;;15.13;11.07;;;30.50;99.90;;;;;;5099389;28;20054;-75
2023/07/11 09:49:07;;;;;;;13.75;11.23;;;30.60;99.90;;;;;;5097279;28;20447;-75
2023/07/11 09:51:41;;;;;;;17.80;11.55;;;30.60;99.90;;;;;;5100910;28;20068;-75
2023/07/11 09:54:41;;;;;;;19.25;12.52;;;30.50;99.90;;;;;;5109393;28;20027;-75
2023/07/11 09:57:11;;;;;;;20.98;12.68;;;30.60;99.90;;;;;;5115691;27;20384;-75
2023/07/11 09:59:36;;;;;;;17.05;11.60;;;30.60;99.90;;;;;;5096478;28;20105;-75
2023/07/11 10:02:06;;;;;;;14.23;10.25;;;30.70;99.90;;;;;;5101444;28;20063;-75
2023/07/11 10:04:32;;;;;;;14.48;11.55;;;30.80;99.90;;;;;;5091295;28;20031;-75
2023/07/11 10:07:05;;;;;;;15.48;11.93;;;30.80;99.90;;;;;;5091571;28;20040;-75
2023/07/11 10:09:36;;;;;;;18.77;11.32;;;30.90;99.90;;;;;;5105823;28;20027;-75
2023/07/11 10:12:14;;;;;;;16.45;10.95;;;31.00;99.90;;;;;;5103240;28;20100;-75
2023/07/11 10:14:45;;;;;;;15.73;12.43;;;31.10;99.90;;;;;;5089690;28;20020;-75
2023/07/11 10:17:16;;;;;;;14.25;10.98;;;31.00;99.90;;;;;;5104197;28;20023;-75
2023/07/11 10:19:42;;;;;;;13.20;10.65;;;31.10;99.90;;;;;;5098810;28;20028;-75
2023/07/11 10:22:15;;;;;;;19.48;10.38;;;31.20;99.90;;;;;;5091045;28;20024;-75
2023/07/11 10:24:42;;;;;;;12.27;10.00;;;31.30;99.90;;;;;;5092037;28;20031;-75
2023/07/11 10:27:13;;;;;;;17.70;9.95;;;31.40;99.90;;;;;;5103993;28;20022;-75
2023/07/11 10:29:50;;;;;;;;;;;31.50;99.90;;;;;;5107175;28;20066;-75
2023/07/11 10:32:35;;;;;;;14.50;9.07;;;31.50;99.90;;;;;;5080069;28;19904;-75
2023/07/11 10:35:05;;;;;;;11.93;9.80;;;31.60;99.90;;;;;;5099371;28;20589;-75
2023/07/11 10:37:45;;;;;;;13.77;9.38;;;31.70;99.90;;;;;;5095588;28;20027;-75
2023/07/11 10:40:28;;;;;;;13.45;9.48;;;31.70;99.90;;;;;;5101093;28;20012;-75
2023/07/11 10:43:17;;;;;;;11.63;10.32;;;31.80;99.90;;;;;;5099841;28;20096;-75
2023/07/11 10:45:45;;;;;;;14.13;10.73;;;31.90;99.90;;;;;;5104749;28;20035;-75
2023/07/11 10:48:30;;;;;;;15.02;8.93;;;32.00;99.90;;;;;;5087880;28;20063;-75
2023/07/11 10:51:06;;;;;;;15.93;9.55;;;32.00;99.90;;;;;;5104108;28;20026;-75
2023/07/11 10:53:44;;;;;;;12.55;10.20;;;32.10;99.90;;;;;;5083372;28;20020;-75
2023/07/11 10:56:20;;;;;;;12.80;9.38;;;32.10;99.90;;;;;;5083919;28;20024;-75
2023/07/11 10:58:46;;;;;;;10.65;9.50;;;32.30;99.90;;;;;;5071228;28;20036;-75
2023/07/11 11:01:18;;;;;;;15.15;10.15;;;32.30;99.90;;;;;;5079731;28;20020;-75
2023/07/11 11:03:46;;;;;;;12.43;10.32;;;32.50;99.90;;;;;;5095383;28;20031;-75
2023/07/11 11:06:41;;;;;;;14.35;10.55;;;32.40;99.90;;;;;;5095728;28;20035;-75
2023/07/11 11:09:25;;;;;;;19.55;10.48;;;32.40;99.90;;;;;;5087010;28;20039;-75
2023/07/11 11:12:04;;;;;;;13.10;10.07;;;32.50;99.90;;;;;;5098277;28;20024;-75
2023/07/11 11:14:50;;;;;;;10.25;9.07;;;32.60;99.90;;;;;;5107066;28;20019;-75
2023/07/11 11:17:38;;;;;;;23.73;10.20;;;32.70;99.90;;;;;;5096132;28;20023;-75
2023/07/11 11:20:10;;;;;;;14.23;10.05;;;32.80;99.90;;;;;;5067917;28;20064;-75
2023/07/11 11:22:39;;;;;;;13.32;9.50;;;32.80;99.90;;;;;;5111955;28;20024;-75
2023/07/11 11:25:24;;;;;;;14.70;10.02;;;32.80;99.90;;;;;;5109790;28;20085;-75
2023/07/11 11:28:04;;;;;;;13.98;9.20;;;32.80;99.90;;;;;;5107807;28;20383;-75
2023/07/11 11:30:48;;;;;;;11.17;9.10;;;33.00;99.90;;;;;;5103026;28;20020;-75
2023/07/11 11:33:38;;;;;;;11.23;8.77;;;33.00;99.90;;;;;;5097976;28;20464;-75
2023/07/11 11:36:19;;;;;;;10.13;8.65;;;33.10;99.90;;;;;;5097397;28;20649;-75
2023/07/11 11:39:05;;;;;;;9.80;8.75;;;33.20;99.90;;;;;;5088678;28;20024;-75
2023/07/11 11:41:39;;;;;;;10.95;9.85;;;33.20;99.90;;;;;;5089999;28;20032;-75
2023/07/11 11:44:19;;;;;;;10.77;9.20;;;33.30;99.90;;;;;;5097290;28;20110;-75
2023/07/11 11:46:45;;;;;;;14.85;8.95;;;33.30;99.90;;;;;;5084013;28;20118;-75
2023/07/11 11:49:13;;;;;;;18.05;9.70;;;33.50;99.90;;;;;;5076346;28;20028;-74
2023/07/11 11:51:41;;;;;;;10.00;8.82;;;33.60;99.90;;;;;;5100102;28;20024;-75
2023/07/11 11:54:20;;;;;;;13.63;10.27;;;33.70;99.90;;;;;;5106331;28;20069;-75
2023/07/11 11:56:52;;;;;;;10.77;9.48;;;33.70;99.90;;;;;;5106371;28;20418;-75
2023/07/11 12:12:36;;;;;;;16.85;9.98;;;33.90;99.90;;;;;;5150267;27;20422;-75
2023/07/11 12:15:22;;;;;;;13.20;10.43;;;34.80;99.90;;;;;;5149124;27;20031;-75
2023/07/11 12:17:49;;;;;;;10.25;9.18;;;34.80;99.90;;;;;;5150059;27;20489;-76
2023/07/11 12:20:26;;;;;;;13.45;9.82;;;34.70;99.90;;;;;;5147680;27;20026;-75
2023/07/11 12:22:52;;;;;;;12.93;9.07;;;34.70;99.90;;;;;;5148277;27;20057;-75
2023/07/11 12:25:22;;;;;;;11.32;9.30;;;34.80;99.90;;;;;;5146915;27;20055;-75
2023/07/11 12:27:51;;;;;;;14.07;9.73;;;34.80;99.90;;;;;;5148284;27;20111;-75
2023/07/11 12:30:26;;;;;;;11.25;9.77;;;34.90;99.90;;;;;;5148072;27;20481;-75
2023/07/11 12:32:56;;;;;;;12.18;9.25;;;35.00;99.90;;;;;;5143036;27;20035;-75
2023/07/11 12:35:35;;;;;;;17.95;9.82;;;35.10;99.90;;;;;;5149839;27;20027;-75
2023/07/11 12:38:05;;;;;;;14.02;10.05;;;35.20;99.90;;;;;;5149780;27;20474;-75
2023/07/11 12:40:33;;;;;;;11.73;9.35;;;35.20;99.90;;;;;;5150331;27;20050;-75
2023/07/11 12:43:13;;;;;;;16.75;10.40;;;35.40;99.90;;;;;;5149937;27;20389;-75
2023/07/11 12:45:42;;;;;;;10.48;9.63;;;35.50;99.90;;;;;;5148465;27;20370;-75
2023/07/11 12:48:15;;;;;;;13.75;9.10;;;35.50;99.90;;;;;;5149458;27;20019;-75
2023/07/11 12:50:48;;;;;;;12.48;10.10;;;35.50;99.50;;;;;;5148969;27;20019;-75
2023/07/11 12:53:14;;;;;;;12.60;9.77;;;35.40;99.90;;;;;;5148112;27;20023;-75
2023/07/11 12:55:44;;;;;;;13.48;10.00;;;35.50;99.90;;;;;;5149488;27;20092;-75
2023/07/11 12:58:23;;;;;;;12.40;9.93;;;35.50;99.90;;;;;;5147564;27;20019;-75
2023/07/11 13:00:51;;;;;;;15.77;9.82;;;35.40;99.90;;;;;;5149163;27;20110;-75
2023/07/11 13:03:34;;;;;;;15.07;9.75;;;35.50;99.90;;;;;;5147753;27;20080;-75
2023/07/11 13:06:03;;;;;;;10.38;9.07;;;35.50;99.60;;;;;;5148094;27;20031;-75